sensor_id;sensor_type;location;lat;lon;timestamp;pressure;altitude;pressure_sealevel;temperature;humidity
83488;BME280;73424;49.994;8.184;2023-10-31T00:01:30;98260.34;;;11.47;93.50
83488;BME280;73424;49.994;8.184;2023-10-31T00:03:55;98226.69;;;11.25;93.85
83488;BME280;73424;49.994;8.184;2023-10-31T00:06:22;98268.22;;;11.59;92.17
83488;BME280;73424;49.994;8.184;2023-10-31T00:08:47;98241.81;;;11.41;92.09
83488;BME280;73424;49.994;8.184;2023-10-31T00:11:12;98276.22;;;11.59;91.69
83488;BME280;73424;49.994;8.184;2023-10-31T00:13:37;98277.22;;;11.53;91.81
83488;BME280;73424;49.994;8.184;2023-10-31T00:16:03;98250.09;;;11.39;91.88
83488;BME280;73424;49.994;8.184;2023-10-31T00:18:28;98281.06;;;11.62;91.50
83488;BME280;73424;49.994;8.184;2023-10-31T00:20:53;98261.63;;;11.45;91.50
83488;BME280;73424;49.994;8.184;2023-10-31T00:23:19;98260.28;;;11.42;91.32
83488;BME280;73424;49.994;8.184;2023-10-31T00:25:44;98275.44;;;11.59;89.00
83488;BME280;73424;49.994;8.184;2023-10-31T00:28:09;98277.81;;;11.55;90.41
83488;BME280;73424;49.994;8.184;2023-10-31T00:30:35;98258.81;;;11.35;90.96
83488;BME280;73424;49.994;8.184;2023-10-31T00:33:00;98187.84;;;10.96;89.18
83488;BME280;73424;49.994;8.184;2023-10-31T00:35:26;98272.59;;;11.43;90.55
83488;BME280;73424;49.994;8.184;2023-10-31T00:37:51;98261.09;;;11.43;89.34
83488;BME280;73424;49.994;8.184;2023-10-31T00:40:16;98248.53;;;11.22;90.75
83488;BME280;73424;49.994;8.184;2023-10-31T00:42:42;98260.78;;;11.23;90.82
83488;BME280;73424;49.994;8.184;2023-10-31T00:45:08;98253.22;;;11.15;89.50
83488;BME280;73424;49.994;8.184;2023-10-31T00:47:34;98284.91;;;11.28;90.14
83488;BME280;73424;49.994;8.184;2023-10-31T00:49:59;98294.78;;;11.27;90.82
83488;BME280;73424;49.994;8.184;2023-10-31T00:52:25;98282.31;;;11.16;90.90
83488;BME280;73424;49.994;8.184;2023-10-31T00:54:50;98284.09;;;11.11;90.97
83488;BME280;73424;49.994;8.184;2023-10-31T00:57:15;98299.72;;;11.02;90.55
83488;BME280;73424;49.994;8.184;2023-10-31T00:59:41;98294.50;;;10.90;90.87
83488;BME280;73424;49.994;8.184;2023-10-31T01:02:06;98249.72;;;10.59;91.28
83488;BME280;73424;49.994;8.184;2023-10-31T01:04:31;98275.31;;;10.77;92.04
83488;BME280;73424;49.994;8.184;2023-10-31T01:06:57;98283.00;;;10.73;90.66
83488;BME280;73424;49.994;8.184;2023-10-31T01:09:22;98263.44;;;10.51;92.63
83488;BME280;73424;49.994;8.184;2023-10-31T01:11:47;98289.00;;;10.64;91.27
83488;BME280;73424;49.994;8.184;2023-10-31T01:14:13;98291.06;;;10.62;92.36
83488;BME280;73424;49.994;8.184;2023-10-31T01:16:39;98291.22;;;10.55;92.56
83488;BME280;73424;49.994;8.184;2023-10-31T01:19:05;98305.28;;;10.51;92.43
83488;BME280;73424;49.994;8.184;2023-10-31T01:21:31;98256.16;;;10.30;92.40
83488;BME280;73424;49.994;8.184;2023-10-31T01:23:56;98310.47;;;10.57;92.61
83488;BME280;73424;49.994;8.184;2023-10-31T01:26:21;98320.72;;;10.49;93.12
83488;BME280;73424;49.994;8.184;2023-10-31T01:28:46;98301.06;;;10.38;93.18
83488;BME280;73424;49.994;8.184;2023-10-31T01:31:12;98319.38;;;10.34;93.61
83488;BME280;73424;49.994;8.184;2023-10-31T01:33:37;98285.09;;;9.98;93.56
83488;BME280;73424;49.994;8.184;2023-10-31T01:36:03;98325.81;;;10.22;93.36
83488;BME280;73424;49.994;8.184;2023-10-31T01:38:28;98320.16;;;10.07;94.29
83488;BME280;73424;49.994;8.184;2023-10-31T01:40:53;98300.75;;;9.95;93.40
83488;BME280;73424;49.994;8.184;2023-10-31T01:43:34;98328.28;;;10.12;93.54
83488;BME280;73424;49.994;8.184;2023-10-31T01:46:00;98305.59;;;9.98;93.01
83488;BME280;73424;49.994;8.184;2023-10-31T01:48:29;98334.88;;;10.09;93.31
83488;BME280;73424;49.994;8.184;2023-10-31T01:50:56;98309.22;;;9.92;92.87
83488;BME280;73424;49.994;8.184;2023-10-31T01:53:23;98334.47;;;9.89;93.69
83488;BME280;73424;49.994;8.184;2023-10-31T01:55:50;98336.69;;;9.80;93.64
83488;BME280;73424;49.994;8.184;2023-10-31T01:58:17;98332.66;;;9.66;94.91
83488;BME280;73424;49.994;8.184;2023-10-31T02:00:44;98332.00;;;9.59;93.84
83488;BME280;73424;49.994;8.184;2023-10-31T02:03:09;98337.06;;;9.61;94.73
83488;BME280;73424;49.994;8.184;2023-10-31T02:05:35;98321.84;;;9.45;95.16
83488;BME280;73424;49.994;8.184;2023-10-31T02:08:01;98355.69;;;9.72;94.81
83488;BME280;73424;49.994;8.184;2023-10-31T02:10:26;98333.03;;;9.58;94.26
83488;BME280;73424;49.994;8.184;2023-10-31T02:12:52;98351.53;;;9.76;94.47
83488;BME280;73424;49.994;8.184;2023-10-31T02:15:17;98340.06;;;9.76;93.47
83488;BME280;73424;49.994;8.184;2023-10-31T02:17:42;98316.13;;;9.53;94.16
83488;BME280;73424;49.994;8.184;2023-10-31T02:20:08;98334.66;;;9.59;94.02
83488;BME280;73424;49.994;8.184;2023-10-31T02:22:33;98337.44;;;9.53;94.50
83488;BME280;73424;49.994;8.184;2023-10-31T02:24:59;98343.78;;;9.52;95.07
83488;BME280;73424;49.994;8.184;2023-10-31T02:27:24;98342.19;;;9.51;94.20
83488;BME280;73424;49.994;8.184;2023-10-31T02:29:49;98347.19;;;9.36;95.60
83488;BME280;73424;49.994;8.184;2023-10-31T02:32:15;98354.34;;;9.35;95.15
83488;BME280;73424;49.994;8.184;2023-10-31T02:34:40;98319.28;;;9.15;95.13
83488;BME280;73424;49.994;8.184;2023-10-31T02:37:06;98320.66;;;9.17;94.72
83488;BME280;73424;49.994;8.184;2023-10-31T02:39:32;98344.97;;;9.21;95.48
83488;BME280;73424;49.994;8.184;2023-10-31T02:41:58;98352.16;;;9.32;95.20
83488;BME280;73424;49.994;8.184;2023-10-31T02:44:23;98352.97;;;9.33;94.70
83488;BME280;73424;49.994;8.184;2023-10-31T02:46:48;98349.13;;;9.28;94.64
83488;BME280;73424;49.994;8.184;2023-10-31T02:49:13;98357.34;;;9.27;95.10
83488;BME280;73424;49.994;8.184;2023-10-31T02:51:39;98334.56;;;9.19;94.08
83488;BME280;73424;49.994;8.184;2023-10-31T02:54:04;98358.75;;;9.41;94.03
83488;BME280;73424;49.994;8.184;2023-10-31T02:56:30;98338.81;;;9.09;94.70
83488;BME280;73424;49.994;8.184;2023-10-31T02:58:55;98350.28;;;9.21;94.68
83488;BME280;73424;49.994;8.184;2023-10-31T03:01:20;98371.25;;;9.29;94.74
83488;BME280;73424;49.994;8.184;2023-10-31T03:03:46;98329.72;;;9.05;94.67
83488;BME280;73424;49.994;8.184;2023-10-31T03:06:11;98311.66;;;8.95;94.44
83488;BME280;73424;49.994;8.184;2023-10-31T03:08:36;98380.47;;;9.26;94.87
83488;BME280;73424;49.994;8.184;2023-10-31T03:11:01;98384.41;;;9.24;94.97
83488;BME280;73424;49.994;8.184;2023-10-31T03:13:27;98375.97;;;9.15;95.05
83488;BME280;73424;49.994;8.184;2023-10-31T03:15:52;98390.53;;;9.24;94.84
83488;BME280;73424;49.994;8.184;2023-10-31T03:18:17;98366.13;;;9.16;94.67
83488;BME280;73424;49.994;8.184;2023-10-31T03:20:44;98381.19;;;9.45;93.70
83488;BME280;73424;49.994;8.184;2023-10-31T03:23:13;98395.44;;;9.51;94.55
83488;BME280;73424;49.994;8.184;2023-10-31T03:25:38;98379.78;;;9.31;94.55
83488;BME280;73424;49.994;8.184;2023-10-31T03:28:03;98387.06;;;9.24;94.52
83488;BME280;73424;49.994;8.184;2023-10-31T03:30:29;98369.25;;;9.13;94.80
83488;BME280;73424;49.994;8.184;2023-10-31T03:32:54;98399.69;;;9.40;94.13
83488;BME280;73424;49.994;8.184;2023-10-31T03:35:19;98368.22;;;9.14;94.66
83488;BME280;73424;49.994;8.184;2023-10-31T03:37:45;98404.44;;;9.38;94.85
83488;BME280;73424;49.994;8.184;2023-10-31T03:40:10;98406.66;;;9.41;94.46
83488;BME280;73424;49.994;8.184;2023-10-31T03:42:36;98383.28;;;9.20;94.86
83488;BME280;73424;49.994;8.184;2023-10-31T03:45:01;98401.66;;;9.33;94.65
83488;BME280;73424;49.994;8.184;2023-10-31T03:47:27;98423.31;;;9.48;94.41
83488;BME280;73424;49.994;8.184;2023-10-31T03:49:52;98424.00;;;9.55;94.34
83488;BME280;73424;49.994;8.184;2023-10-31T03:52:17;98428.97;;;9.63;93.82
83488;BME280;73424;49.994;8.184;2023-10-31T03:54:44;98418.78;;;9.60;94.04
83488;BME280;73424;49.994;8.184;2023-10-31T03:57:09;98394.84;;;9.37;93.96
83488;BME280;73424;49.994;8.184;2023-10-31T03:59:37;98424.72;;;9.62;93.85
83488;BME280;73424;49.994;8.184;2023-10-31T04:02:02;98458.16;;;9.81;94.17
83488;BME280;73424;49.994;8.184;2023-10-31T04:04:27;98456.19;;;9.89;94.18
83488;BME280;73424;49.994;8.184;2023-10-31T04:06:52;98449.13;;;9.82;93.72
83488;BME280;73424;49.994;8.184;2023-10-31T04:09:18;98440.66;;;9.85;94.19
83488;BME280;73424;49.994;8.184;2023-10-31T04:11:43;98462.91;;;10.03;93.50
83488;BME280;73424;49.994;8.184;2023-10-31T04:14:08;98458.38;;;10.03;93.78
83488;BME280;73424;49.994;8.184;2023-10-31T04:16:39;98461.63;;;10.05;93.44
83488;BME280;73424;49.994;8.184;2023-10-31T04:19:04;98475.44;;;10.14;93.53
83488;BME280;73424;49.994;8.184;2023-10-31T04:21:30;98444.94;;;9.98;93.36
83488;BME280;73424;49.994;8.184;2023-10-31T04:23:55;98472.38;;;10.22;92.83
83488;BME280;73424;49.994;8.184;2023-10-31T04:26:20;98470.66;;;10.16;93.20
83488;BME280;73424;49.994;8.184;2023-10-31T04:28:46;98469.97;;;10.20;92.69
83488;BME280;73424;49.994;8.184;2023-10-31T04:31:11;98480.50;;;10.27;92.75
83488;BME280;73424;49.994;8.184;2023-10-31T04:33:36;98445.41;;;9.95;92.65
83488;BME280;73424;49.994;8.184;2023-10-31T04:36:01;98453.84;;;10.04;92.65
83488;BME280;73424;49.994;8.184;2023-10-31T04:38:27;98469.38;;;10.07;92.10
83488;BME280;73424;49.994;8.184;2023-10-31T04:40:52;98494.19;;;10.19;92.02
83488;BME280;73424;49.994;8.184;2023-10-31T04:43:17;98466.97;;;10.05;92.65
83488;BME280;73424;49.994;8.184;2023-10-31T04:45:43;98495.34;;;10.23;92.00
83488;BME280;73424;49.994;8.184;2023-10-31T04:48:08;98471.47;;;10.05;91.73
83488;BME280;73424;49.994;8.184;2023-10-31T04:50:33;98503.81;;;10.20;91.96
83488;BME280;73424;49.994;8.184;2023-10-31T04:52:59;98478.28;;;10.12;91.05
83488;BME280;73424;49.994;8.184;2023-10-31T04:55:24;98472.16;;;10.12;91.28
83488;BME280;73424;49.994;8.184;2023-10-31T04:57:49;98466.16;;;10.16;91.64
83488;BME280;73424;49.994;8.184;2023-10-31T05:00:15;98480.28;;;10.17;91.36
83488;BME280;73424;49.994;8.184;2023-10-31T05:02:40;98499.75;;;10.29;91.41
83488;BME280;73424;49.994;8.184;2023-10-31T05:05:06;98498.56;;;10.25;91.08
83488;BME280;73424;49.994;8.184;2023-10-31T05:07:31;98488.16;;;10.23;91.39
83488;BME280;73424;49.994;8.184;2023-10-31T05:09:57;98462.09;;;10.02;91.32
83488;BME280;73424;49.994;8.184;2023-10-31T05:12:22;98482.47;;;10.20;92.31
83488;BME280;73424;49.994;8.184;2023-10-31T05:14:49;98496.38;;;10.22;91.50
83488;BME280;73424;49.994;8.184;2023-10-31T05:17:14;98505.06;;;10.29;91.83
83488;BME280;73424;49.994;8.184;2023-10-31T05:19:40;98473.75;;;10.13;92.07
83488;BME280;73424;49.994;8.184;2023-10-31T05:22:05;98480.84;;;10.19;91.11
83488;BME280;73424;49.994;8.184;2023-10-31T05:24:30;98489.75;;;10.24;91.29
83488;BME280;73424;49.994;8.184;2023-10-31T05:26:57;98488.84;;;10.19;91.78
83488;BME280;73424;49.994;8.184;2023-10-31T05:29:22;98441.47;;;9.86;91.75
83488;BME280;73424;49.994;8.184;2023-10-31T05:31:47;98526.97;;;10.31;91.48
83488;BME280;73424;49.994;8.184;2023-10-31T05:34:13;98516.06;;;10.32;91.85
83488;BME280;73424;49.994;8.184;2023-10-31T05:36:38;98509.22;;;10.25;91.52
83488;BME280;73424;49.994;8.184;2023-10-31T05:39:03;98517.25;;;10.36;90.16
83488;BME280;73424;49.994;8.184;2023-10-31T05:41:29;98522.41;;;10.43;90.86
83488;BME280;73424;49.994;8.184;2023-10-31T05:43:54;98514.78;;;10.35;90.68
83488;BME280;73424;49.994;8.184;2023-10-31T05:46:19;98501.84;;;10.27;89.91
83488;BME280;73424;49.994;8.184;2023-10-31T05:48:45;98529.16;;;10.46;89.81
83488;BME280;73424;49.994;8.184;2023-10-31T05:53:39;98523.34;;;10.37;89.41
83488;BME280;73424;49.994;8.184;2023-10-31T05:56:05;98513.75;;;10.24;89.84
83488;BME280;73424;49.994;8.184;2023-10-31T05:58:33;98510.06;;;10.25;90.06
83488;BME280;73424;49.994;8.184;2023-10-31T06:00:59;98507.38;;;10.25;88.93
83488;BME280;73424;49.994;8.184;2023-10-31T06:03:24;98507.63;;;10.24;89.99
83488;BME280;73424;49.994;8.184;2023-10-31T06:05:49;98534.84;;;10.37;89.55
83488;BME280;73424;49.994;8.184;2023-10-31T06:08:15;98539.25;;;10.32;89.40
83488;BME280;73424;49.994;8.184;2023-10-31T06:10:40;98541.81;;;10.27;89.42
83488;BME280;73424;49.994;8.184;2023-10-31T06:13:05;98549.22;;;10.25;89.80
83488;BME280;73424;49.994;8.184;2023-10-31T06:15:30;98529.38;;;9.98;90.25
83488;BME280;73424;49.994;8.184;2023-10-31T06:17:56;98530.53;;;10.02;89.53
83488;BME280;73424;49.994;8.184;2023-10-31T06:20:21;98550.38;;;10.17;89.80
83488;BME280;73424;49.994;8.184;2023-10-31T06:22:47;98570.31;;;10.26;89.96
83488;BME280;73424;49.994;8.184;2023-10-31T06:25:12;98570.66;;;10.30;89.78
83488;BME280;73424;49.994;8.184;2023-10-31T06:27:37;98556.06;;;10.21;88.85
83488;BME280;73424;49.994;8.184;2023-10-31T06:30:03;98553.97;;;10.23;88.58
83488;BME280;73424;49.994;8.184;2023-10-31T06:32:28;98583.28;;;10.23;88.95
83488;BME280;73424;49.994;8.184;2023-10-31T06:34:54;98582.38;;;10.29;89.53
83488;BME280;73424;49.994;8.184;2023-10-31T06:37:19;98594.88;;;10.28;88.76
83488;BME280;73424;49.994;8.184;2023-10-31T06:39:44;98596.25;;;10.19;89.60
83488;BME280;73424;49.994;8.184;2023-10-31T06:42:09;98619.22;;;10.32;89.92
83488;BME280;73424;49.994;8.184;2023-10-31T06:44:35;98619.09;;;10.27;88.75
83488;BME280;73424;49.994;8.184;2023-10-31T06:47:00;98616.66;;;10.25;89.24
83488;BME280;73424;49.994;8.184;2023-10-31T06:49:25;98626.41;;;10.31;89.60
83488;BME280;73424;49.994;8.184;2023-10-31T06:51:50;98609.00;;;10.17;89.20
83488;BME280;73424;49.994;8.184;2023-10-31T06:54:16;98626.75;;;10.35;89.51
83488;BME280;73424;49.994;8.184;2023-10-31T06:56:41;98634.75;;;10.23;89.55
83488;BME280;73424;49.994;8.184;2023-10-31T06:59:06;98624.66;;;10.14;89.33
83488;BME280;73424;49.994;8.184;2023-10-31T07:01:33;98633.81;;;10.29;89.05
83488;BME280;73424;49.994;8.184;2023-10-31T07:03:59;98636.03;;;10.21;89.75
83488;BME280;73424;49.994;8.184;2023-10-31T07:06:25;98614.06;;;10.07;88.53
83488;BME280;73424;49.994;8.184;2023-10-31T07:08:50;98643.66;;;10.29;88.12
83488;BME280;73424;49.994;8.184;2023-10-31T07:11:15;98638.78;;;10.26;88.69
83488;BME280;73424;49.994;8.184;2023-10-31T07:13:40;98645.06;;;10.20;88.26
83488;BME280;73424;49.994;8.184;2023-10-31T07:16:06;98660.22;;;10.31;89.29
83488;BME280;73424;49.994;8.184;2023-10-31T07:18:32;98666.84;;;10.40;88.42
83488;BME280;73424;49.994;8.184;2023-10-31T07:20:57;98675.81;;;10.46;88.22
83488;BME280;73424;49.994;8.184;2023-10-31T07:23:22;98662.56;;;10.39;87.81
83488;BME280;73424;49.994;8.184;2023-10-31T07:25:48;98667.44;;;10.42;88.85
83488;BME280;73424;49.994;8.184;2023-10-31T07:28:13;98679.84;;;10.48;87.47
83488;BME280;73424;49.994;8.184;2023-10-31T07:30:38;98664.06;;;10.35;87.75
83488;BME280;73424;49.994;8.184;2023-10-31T07:33:04;98665.00;;;10.29;88.24
83488;BME280;73424;49.994;8.184;2023-10-31T07:35:29;98681.91;;;10.46;88.92
83488;BME280;73424;49.994;8.184;2023-10-31T07:37:54;98669.66;;;10.45;87.04
83488;BME280;73424;49.994;8.184;2023-10-31T07:40:19;98670.56;;;10.62;87.09
83488;BME280;73424;49.994;8.184;2023-10-31T07:42:45;98664.44;;;10.50;86.83
83488;BME280;73424;49.994;8.184;2023-10-31T07:45:10;98663.03;;;10.59;86.95
83488;BME280;73424;49.994;8.184;2023-10-31T07:47:36;98646.47;;;10.57;85.21
83488;BME280;73424;49.994;8.184;2023-10-31T07:50:01;98659.69;;;10.75;85.36
83488;BME280;73424;49.994;8.184;2023-10-31T07:52:26;98655.00;;;10.82;85.05
83488;BME280;73424;49.994;8.184;2023-10-31T07:54:51;98654.09;;;10.77;85.88
83488;BME280;73424;49.994;8.184;2023-10-31T07:57:17;98666.03;;;10.74;85.09
83488;BME280;73424;49.994;8.184;2023-10-31T07:59:42;98633.59;;;10.66;84.96
83488;BME280;73424;49.994;8.184;2023-10-31T08:02:07;98642.41;;;10.66;84.18
83488;BME280;73424;49.994;8.184;2023-10-31T08:04:33;98664.53;;;10.90;84.07
83488;BME280;73424;49.994;8.184;2023-10-31T08:06:58;98666.50;;;10.95;83.58
83488;BME280;73424;49.994;8.184;2023-10-31T08:09:23;98662.44;;;11.04;82.70
83488;BME280;73424;49.994;8.184;2023-10-31T08:11:49;98636.69;;;10.98;82.67
83488;BME280;73424;49.994;8.184;2023-10-31T08:14:14;98688.81;;;11.40;82.94
83488;BME280;73424;49.994;8.184;2023-10-31T08:16:43;98681.59;;;11.40;81.64
83488;BME280;73424;49.994;8.184;2023-10-31T08:19:08;98674.69;;;11.28;82.29
83488;BME280;73424;49.994;8.184;2023-10-31T08:21:34;98680.19;;;11.38;81.54
83488;BME280;73424;49.994;8.184;2023-10-31T08:24:04;98696.63;;;11.58;81.19
83488;BME280;73424;49.994;8.184;2023-10-31T08:26:33;98701.56;;;11.38;81.30
83488;BME280;73424;49.994;8.184;2023-10-31T08:28:59;98684.09;;;11.59;81.67
83488;BME280;73424;49.994;8.184;2023-10-31T08:31:24;98676.00;;;11.42;82.00
83488;BME280;73424;49.994;8.184;2023-10-31T08:33:50;98686.91;;;11.52;80.78
83488;BME280;73424;49.994;8.184;2023-10-31T08:36:15;98720.72;;;11.46;79.97
83488;BME280;73424;49.994;8.184;2023-10-31T08:38:40;98703.66;;;11.36;81.30
83488;BME280;73424;49.994;8.184;2023-10-31T08:41:06;98713.31;;;11.37;82.37
83488;BME280;73424;49.994;8.184;2023-10-31T08:43:31;98746.91;;;11.61;80.52
83488;BME280;73424;49.994;8.184;2023-10-31T08:45:57;98698.78;;;11.33;80.71
83488;BME280;73424;49.994;8.184;2023-10-31T08:48:22;98708.06;;;11.42;82.25
83488;BME280;73424;49.994;8.184;2023-10-31T08:50:48;98706.34;;;11.36;80.08
83488;BME280;73424;49.994;8.184;2023-10-31T08:53:14;98755.88;;;11.55;80.80
83488;BME280;73424;49.994;8.184;2023-10-31T08:55:39;98713.88;;;11.39;81.09
83488;BME280;73424;49.994;8.184;2023-10-31T08:58:05;98751.09;;;11.57;80.92
83488;BME280;73424;49.994;8.184;2023-10-31T09:00:30;98742.38;;;11.73;79.80
83488;BME280;73424;49.994;8.184;2023-10-31T09:02:55;98762.19;;;11.89;79.92
83488;BME280;73424;49.994;8.184;2023-10-31T09:05:20;98729.84;;;11.51;79.61
83488;BME280;73424;49.994;8.184;2023-10-31T09:07:46;98772.81;;;11.72;79.68
83488;BME280;73424;49.994;8.184;2023-10-31T09:10:12;98781.16;;;11.64;80.40
83488;BME280;73424;49.994;8.184;2023-10-31T09:12:37;98766.09;;;11.58;80.08
83488;BME280;73424;49.994;8.184;2023-10-31T09:15:03;98792.66;;;11.53;80.01
83488;BME280;73424;49.994;8.184;2023-10-31T09:17:29;98800.03;;;11.46;80.85
83488;BME280;73424;49.994;8.184;2023-10-31T09:19:55;98727.72;;;11.01;80.72
83488;BME280;73424;49.994;8.184;2023-10-31T09:22:20;98800.03;;;11.46;80.08
83488;BME280;73424;49.994;8.184;2023-10-31T09:24:46;98726.09;;;11.12;79.21
83488;BME280;73424;49.994;8.184;2023-10-31T09:27:11;98809.75;;;11.64;79.87
83488;BME280;73424;49.994;8.184;2023-10-31T09:29:36;98760.31;;;11.38;80.14
83488;BME280;73424;49.994;8.184;2023-10-31T09:32:02;98809.13;;;11.85;79.26
83488;BME280;73424;49.994;8.184;2023-10-31T09:34:28;98814.63;;;11.78;78.44
83488;BME280;73424;49.994;8.184;2023-10-31T09:36:53;98807.53;;;11.72;77.64
83488;BME280;73424;49.994;8.184;2023-10-31T09:39:19;98808.88;;;11.86;78.84
83488;BME280;73424;49.994;8.184;2023-10-31T09:41:44;98827.06;;;12.13;77.31
83488;BME280;73424;49.994;8.184;2023-10-31T09:44:09;98826.19;;;12.24;78.75
83488;BME280;73424;49.994;8.184;2023-10-31T09:46:34;98823.44;;;12.19;77.38
83488;BME280;73424;49.994;8.184;2023-10-31T09:49:00;98825.50;;;12.28;77.03
83488;BME280;73424;49.994;8.184;2023-10-31T09:51:26;98829.56;;;12.31;77.83
83488;BME280;73424;49.994;8.184;2023-10-31T09:53:54;98823.72;;;12.34;76.32
83488;BME280;73424;49.994;8.184;2023-10-31T09:56:21;98815.97;;;12.49;76.98
83488;BME280;73424;49.994;8.184;2023-10-31T09:58:46;98799.09;;;12.32;76.04
83488;BME280;73424;49.994;8.184;2023-10-31T10:01:12;98817.91;;;12.37;76.76
83488;BME280;73424;49.994;8.184;2023-10-31T10:03:37;98829.81;;;12.74;77.28
83488;BME280;73424;49.994;8.184;2023-10-31T10:06:03;98829.41;;;12.82;75.19
83488;BME280;73424;49.994;8.184;2023-10-31T10:08:29;98793.91;;;12.42;73.58
83488;BME280;73424;49.994;8.184;2023-10-31T10:10:54;98823.72;;;12.62;74.74
83488;BME280;73424;49.994;8.184;2023-10-31T10:13:20;98832.16;;;12.87;74.82
83488;BME280;73424;49.994;8.184;2023-10-31T10:15:47;98789.72;;;12.79;73.72
83488;BME280;73424;49.994;8.184;2023-10-31T10:18:33;98832.16;;;12.87;73.53
83488;BME280;73424;49.994;8.184;2023-10-31T10:21:01;98819.78;;;13.15;74.04
83488;BME280;73424;49.994;8.184;2023-10-31T10:23:28;98802.19;;;12.57;72.55
83488;BME280;73424;49.994;8.184;2023-10-31T10:25:55;98837.34;;;12.77;73.16
83488;BME280;73424;49.994;8.184;2023-10-31T10:28:20;98837.69;;;12.97;73.35
83488;BME280;73424;49.994;8.184;2023-10-31T10:30:47;98846.56;;;13.15;73.92
83488;BME280;73424;49.994;8.184;2023-10-31T10:33:16;98831.78;;;13.12;72.71
83488;BME280;73424;49.994;8.184;2023-10-31T10:35:43;98824.28;;;12.97;72.87
83488;BME280;73424;49.994;8.184;2023-10-31T10:38:16;98849.66;;;13.23;72.23
83488;BME280;73424;49.994;8.184;2023-10-31T10:40:44;98841.44;;;13.30;73.15
83488;BME280;73424;49.994;8.184;2023-10-31T10:45:42;98853.38;;;13.22;72.45
83488;BME280;73424;49.994;8.184;2023-10-31T10:48:12;98832.91;;;13.33;72.07
83488;BME280;73424;49.994;8.184;2023-10-31T10:50:42;98846.22;;;13.28;71.12
83488;BME280;73424;49.994;8.184;2023-10-31T10:53:15;98832.09;;;13.16;71.48
83488;BME280;73424;49.994;8.184;2023-10-31T10:55:45;98823.41;;;13.25;70.96
83488;BME280;73424;49.994;8.184;2023-10-31T10:59:03;98824.28;;;13.31;72.22
83488;BME280;73424;49.994;8.184;2023-10-31T11:01:04;98794.28;;;13.29;70.85
83488;BME280;73424;49.994;8.184;2023-10-31T11:03:30;98800.94;;;13.09;71.88
83488;BME280;73424;49.994;8.184;2023-10-31T11:05:56;98816.75;;;13.28;73.47
83488;BME280;73424;49.994;8.184;2023-10-31T11:08:23;98824.28;;;13.47;73.29
83488;BME280;73424;49.994;8.184;2023-10-31T11:10:50;98809.84;;;13.32;71.79
83488;BME280;73424;49.994;8.184;2023-10-31T11:13:15;98807.91;;;13.27;73.82
83488;BME280;73424;49.994;8.184;2023-10-31T11:15:41;98816.09;;;13.37;74.54
83488;BME280;73424;49.994;8.184;2023-10-31T11:18:08;98807.59;;;13.24;73.61
83488;BME280;73424;49.994;8.184;2023-10-31T11:20:35;98790.63;;;13.18;72.33
83488;BME280;73424;49.994;8.184;2023-10-31T11:23:01;98799.81;;;13.22;72.23
83488;BME280;73424;49.994;8.184;2023-10-31T11:25:32;98785.53;;;13.17;75.26
83488;BME280;73424;49.994;8.184;2023-10-31T11:28:13;98810.28;;;13.24;74.82
83488;BME280;73424;49.994;8.184;2023-10-31T11:30:39;98805.31;;;13.32;72.92
83488;BME280;73424;49.994;8.184;2023-10-31T11:33:05;98805.47;;;13.26;72.37
83488;BME280;73424;49.994;8.184;2023-10-31T11:35:32;98788.09;;;13.28;73.02
83488;BME280;73424;49.994;8.184;2023-10-31T11:38:03;98812.56;;;13.53;72.94
83488;BME280;73424;49.994;8.184;2023-10-31T11:40:29;98790.06;;;13.33;72.51
83488;BME280;73424;49.994;8.184;2023-10-31T11:42:58;98819.31;;;13.56;71.52
83488;BME280;73424;49.994;8.184;2023-10-31T11:48:05;98775.31;;;13.14;71.23
83488;BME280;73424;49.994;8.184;2023-10-31T11:50:32;98818.09;;;13.47;72.58
83488;BME280;73424;49.994;8.184;2023-10-31T11:53:09;98821.94;;;13.51;72.04
83488;BME280;73424;49.994;8.184;2023-10-31T11:58:19;98835.41;;;13.39;72.85
83488;BME280;73424;49.994;8.184;2023-10-31T12:00:47;98826.25;;;13.19;73.33
83488;BME280;73424;49.994;8.184;2023-10-31T12:03:18;98804.00;;;13.01;73.00
83488;BME280;73424;49.994;8.184;2023-10-31T12:05:58;98842.31;;;13.02;73.67
83488;BME280;73424;49.994;8.184;2023-10-31T12:08:25;98851.94;;;13.15;73.46
83488;BME280;73424;49.994;8.184;2023-10-31T12:10:51;98845.88;;;13.24;72.59
83488;BME280;73424;49.994;8.184;2023-10-31T12:13:17;98826.25;;;13.19;72.97
83488;BME280;73424;49.994;8.184;2023-10-31T12:15:51;98838.94;;;13.23;75.02
83488;BME280;73424;49.994;8.184;2023-10-31T12:18:18;98771.00;;;12.63;73.33
83488;BME280;73424;49.994;8.184;2023-10-31T12:20:52;98823.63;;;12.90;73.96
83488;BME280;73424;49.994;8.184;2023-10-31T12:23:18;98833.88;;;12.93;74.97
83488;BME280;73424;49.994;8.184;2023-10-31T12:25:50;98811.97;;;12.80;72.59
83488;BME280;73424;49.994;8.184;2023-10-31T12:28:19;98828.75;;;12.92;73.65
83488;BME280;73424;49.994;8.184;2023-10-31T12:30:51;98859.22;;;13.19;73.13
83488;BME280;73424;49.994;8.184;2023-10-31T12:33:19;98847.03;;;13.45;71.40
83488;BME280;73424;49.994;8.184;2023-10-31T12:35:45;98811.16;;;13.13;71.70
83488;BME280;73424;49.994;8.184;2023-10-31T12:38:12;98855.47;;;13.37;71.33
83488;BME280;73424;49.994;8.184;2023-10-31T12:40:38;98858.56;;;13.45;72.87
83488;BME280;73424;49.994;8.184;2023-10-31T12:43:05;98853.16;;;13.62;70.90
83488;BME280;73424;49.994;8.184;2023-10-31T12:45:30;98867.47;;;13.89;69.33
83488;BME280;73424;49.994;8.184;2023-10-31T12:48:03;98869.28;;;14.05;70.04
83488;BME280;73424;49.994;8.184;2023-10-31T12:50:32;98862.38;;;13.88;68.42
83488;BME280;73424;49.994;8.184;2023-10-31T12:52:58;98874.44;;;13.90;67.09
83488;BME280;73424;49.994;8.184;2023-10-31T12:55:26;98879.63;;;13.97;66.27
83488;BME280;73424;49.994;8.184;2023-10-31T12:57:53;98835.47;;;13.83;66.08
83488;BME280;73424;49.994;8.184;2023-10-31T13:00:20;98890.28;;;14.13;64.33
83488;BME280;73424;49.994;8.184;2023-10-31T13:02:58;98878.00;;;14.17;63.83
83488;BME280;73424;49.994;8.184;2023-10-31T13:05:25;98850.31;;;13.90;65.16
83488;BME280;73424;49.994;8.184;2023-10-31T13:07:52;98881.94;;;14.10;64.41